createdAt,value
2019-01-25T00:02:50.637Z,63.80
2019-01-25T00:35:13.831Z,71.20
2019-01-25T00:57:25.983Z,77.10
2019-01-25T01:19:24.934Z,76.40
2019-01-25T01:24:21.906Z,69.60
2019-01-25T01:29:12.879Z,67.40
2019-01-25T01:34:13.288Z,64.80
2019-01-25T01:39:02.563Z,67.60
2019-01-25T01:43:51.181Z,62.00
2019-01-25T01:48:42.641Z,57.30
2019-01-25T01:53:33.485Z,63.00
2019-01-25T02:11:22.127Z,76.40
2019-01-25T02:16:09.790Z,67.40
2019-01-25T02:21:00.628Z,65.60
2019-01-25T02:25:50.261Z,59.70
2019-01-25T02:30:54.582Z,70.50
2019-01-25T02:35:41.924Z,62.90
2019-01-25T02:44:15.807Z,79.40
2019-01-25T02:49:08.737Z,71.50
2019-01-25T02:53:59.215Z,65.60
2019-01-25T02:58:51.550Z,53.00
2019-01-25T03:03:43.475Z,67.90
2019-01-25T03:15:01.770Z,73.90
2019-01-25T03:20:23.603Z,71.80
2019-01-25T03:25:10.117Z,71.90
2019-01-25T03:30:01.050Z,66.90
2019-01-25T04:38:33.077Z,82.60
2019-01-25T04:43:20.078Z,69.60
2019-01-25T04:48:29.681Z,68.60
2019-01-25T05:07:18.771Z,82.60
2019-01-25T05:33:39.923Z,82.30
2019-01-25T05:38:39.786Z,72.80
2019-01-25T05:43:43.153Z,76.20
2019-01-25T06:09:20.988Z,84.80
2019-01-25T06:14:22.182Z,93.10
2019-01-25T06:19:23.790Z,102.90
2019-01-25T06:24:28.891Z,94.40
2019-01-25T07:18:46.811Z,143.10
2019-01-25T10:56:09.417Z,105.90
2019-01-25T11:01:23.332Z,84.00
2019-01-25T11:06:20.416Z,79.10
2019-01-25T11:11:15.826Z,73.40
2019-01-25T11:16:11.704Z,59.00
2019-01-25T11:21:04.165Z,49.10
2019-01-25T11:24:01.146Z,41.70
2019-01-25T11:28:58.796Z,31.40
2019-01-25T11:33:51.443Z,31.90
2019-01-25T11:38:43.734Z,29.20
2019-01-25T11:43:35.817Z,22.20
2019-01-25T11:48:25.745Z,22.70
2019-01-25T11:53:19.054Z,19.50
2019-01-25T11:58:11.434Z,20.50
2019-01-25T12:03:04.755Z,22.80
2019-01-25T12:07:58.239Z,23.50
2019-01-25T12:12:51.518Z,20.90
2019-01-25T12:17:44.986Z,20.80
2019-01-25T12:22:38.057Z,22.30
2019-01-25T12:27:31.711Z,19.20
2019-01-25T12:32:22.859Z,22.40
2019-01-25T12:37:16.746Z,22.10
2019-01-25T12:42:10.054Z,23.00
2019-01-25T12:47:01.370Z,18.70
2019-01-25T12:51:53.912Z,18.90
2019-01-25T12:56:45.641Z,13.80
2019-01-25T13:01:39.463Z,20.90
2019-01-25T13:06:30.893Z,21.20
2019-01-25T13:11:24.603Z,21.40
2019-01-25T13:16:16.045Z,17.10
2019-01-25T13:21:08.693Z,21.90
2019-01-25T13:26:02.325Z,13.80
2019-01-25T13:30:53.686Z,17.20
2019-01-25T13:35:45.935Z,17.70
2019-01-25T13:40:37.944Z,16.80
2019-01-25T13:45:31.899Z,16.70
2019-01-25T13:50:23.244Z,15.70
2019-01-25T13:55:15.013Z,14.20
2019-01-25T14:00:06.871Z,17.80
2019-01-25T14:04:59.751Z,22.00
2019-01-25T14:09:51.454Z,18.60
2019-01-25T14:14:43.177Z,14.80
2019-01-25T14:19:35.015Z,16.10
2019-01-25T14:24:26.997Z,11.50
2019-01-25T14:29:20.600Z,16.60
2019-01-25T14:34:12.494Z,11.00
2019-01-25T14:39:04.353Z,9.00
2019-01-25T14:43:56.314Z,13.30
2019-01-25T14:48:48.069Z,13.70
2019-01-25T14:53:41.832Z,15.50
2019-01-25T14:58:35.347Z,16.10
2019-01-25T15:03:28.879Z,13.40
2019-01-25T15:08:20.161Z,11.50
2019-01-25T15:13:11.902Z,13.00
2019-01-25T15:18:03.586Z,12.50
2019-01-25T15:22:56.337Z,9.70
2019-01-25T15:27:47.981Z,14.50
2019-01-25T15:32:39.764Z,10.60
2019-01-25T15:37:33.628Z,16.10
2019-01-25T15:42:24.657Z,12.50
2019-01-25T15:47:19.342Z,17.90
2019-01-25T15:52:10.535Z,15.00
2019-01-25T15:57:02.180Z,25.30
2019-01-25T16:01:53.943Z,16.20
2019-01-25T16:06:45.604Z,12.10
2019-01-25T16:11:39.045Z,19.20
2019-01-25T16:16:30.753Z,17.60
2019-01-25T16:21:22.526Z,16.20
2019-01-25T16:26:14.437Z,17.60
2019-01-25T16:31:06.070Z,18.10
2019-01-25T16:35:58.981Z,13.60
2019-01-25T16:40:50.721Z,17.40
2019-01-25T16:45:42.140Z,21.00
2019-01-25T16:50:34.533Z,23.30
2019-01-25T16:55:23.832Z,14.60
2019-01-25T17:00:14.084Z,16.20
2019-01-25T17:05:04.477Z,17.00
2019-01-25T17:09:55.003Z,18.10
2019-01-25T17:14:44.483Z,19.80
2019-01-25T17:19:35.682Z,18.40
2019-01-25T17:24:24.395Z,22.50
2019-01-25T17:29:14.226Z,20.70
2019-01-25T17:34:13.360Z,17.50
2019-01-25T17:39:17.881Z,22.80
2019-01-25T17:44:21.425Z,25.60
2019-01-25T17:49:10.236Z,16.30
2019-01-25T17:54:01.447Z,22.60
2019-01-25T17:59:07.047Z,22.80
2019-01-25T18:04:10.450Z,19.40
2019-01-25T18:09:12.632Z,20.80
2019-01-25T18:14:15.348Z,23.50
2019-01-25T18:19:18.453Z,20.70
2019-01-25T18:24:21.105Z,22.30
2019-01-25T18:29:16.567Z,20.60
2019-01-25T18:34:19.865Z,23.40
2019-01-25T18:39:09.124Z,15.00
2019-01-25T18:44:15.557Z,21.80
2019-01-25T18:49:18.721Z,22.90
2019-01-25T18:54:18.684Z,18.00
2019-01-25T18:59:20.169Z,24.40
2019-01-25T19:04:14.834Z,21.00
2019-01-25T19:09:18.536Z,21.60
2019-01-25T19:14:19.232Z,22.40
2019-01-25T19:19:22.185Z,18.30
2019-01-25T19:24:23.959Z,22.40
2019-01-25T19:29:29.942Z,26.60
2019-01-25T19:34:33.567Z,21.70
2019-01-25T19:39:22.088Z,16.30
2019-01-25T19:44:27.574Z,21.70
2019-01-25T19:49:30.966Z,19.10
2019-01-25T19:54:33.389Z,20.70
2019-01-25T19:59:22.098Z,24.00
2019-01-25T20:04:27.507Z,20.90
2019-01-25T20:09:31.110Z,21.50
2019-01-25T20:14:19.485Z,21.40
2019-01-25T20:19:10.262Z,15.20
2019-01-25T20:24:00.151Z,18.80
2019-01-25T20:29:05.830Z,19.80
2019-01-25T20:34:08.923Z,18.90
2019-01-25T20:39:12.329Z,24.10
2019-01-25T20:44:00.508Z,15.50
2019-01-25T20:49:03.771Z,23.70
2019-01-25T20:54:07.005Z,20.30
2019-01-25T20:58:52.900Z,15.70
2019-01-25T21:03:43.370Z,14.40
2019-01-25T21:08:47.970Z,21.60
2019-01-25T21:13:50.489Z,20.40
2019-01-25T21:18:47.986Z,18.30
2019-01-25T21:23:37.931Z,15.60
2019-01-25T21:28:43.211Z,17.90
2019-01-25T21:33:40.630Z,17.00
2019-01-25T21:38:29.602Z,13.30
2019-01-25T21:43:33.192Z,14.10
2019-01-25T21:48:36.363Z,14.50
2019-01-25T21:53:39.789Z,16.60
2019-01-25T21:58:43.304Z,16.40
2019-01-25T22:03:38.437Z,16.30
2019-01-25T22:08:27.665Z,18.00
2019-01-25T22:13:16.647Z,17.80
2019-01-25T22:18:07.413Z,13.00
2019-01-25T22:23:12.784Z,19.30
2019-01-25T22:27:59.903Z,17.20
2019-01-25T22:32:59.751Z,17.90
2019-01-25T22:37:49.670Z,17.80
2019-01-25T22:42:40.165Z,17.20
2019-01-25T22:47:31.113Z,13.80
2019-01-25T22:52:22.751Z,16.30
2019-01-25T22:57:13.851Z,15.20
2019-01-25T23:02:04.771Z,11.20
2019-01-25T23:06:55.583Z,16.30
2019-01-25T23:11:45.615Z,13.30
2019-01-25T23:16:38.355Z,16.40
2019-01-25T23:21:27.834Z,14.30
2019-01-25T23:26:19.230Z,14.20
2019-01-25T23:31:27.322Z,22.80
2019-01-25T23:36:13.356Z,23.10
2019-01-25T23:41:05.013Z,18.00
2019-01-25T23:45:56.529Z,23.00
2019-01-25T23:50:48.139Z,16.30
2019-01-25T23:55:39.967Z,21.10
